Time;durP1;ratioP1;P1;durP2;ratioP2;P2;SDS_P1;SDS_P2;PMS_P1;PMS_P2;Temp;Humidity;BMP_temperature;BMP_pressure;BME280_temperature;BME280_humidity;BME280_pressure;Samples;Min_cycle;Max_cycle;Signal;HPM_P1;HPM_P2
2023/11/21 00:01:18;;;;;;;1.38;1.27;;;7.00;99.90;;;;;;4933253;29;20229;-71
2023/11/21 00:03:45;;;;;;;6.80;1.73;;;7.10;99.90;;;;;;4933085;29;20296;-71
2023/11/21 00:06:12;;;;;;;4.03;1.88;;;7.10;99.90;;;;;;4933112;29;20587;-71
2023/11/21 00:08:39;;;;;;;3.95;2.15;;;7.10;99.90;;;;;;4930620;29;20209;-71
2023/11/21 00:11:06;;;;;;;7.38;1.65;;;7.10;99.90;;;;;;4933393;29;20229;-71
2023/11/21 00:13:33;;;;;;;2.83;1.95;;;7.10;99.90;;;;;;4933071;29;20244;-71
2023/11/21 04:32:16;;;;;;;1.17;1.08;;;6.90;99.90;;;;;;5242568;23;20228;-92
2023/11/21 04:34:42;;;;;;;1.48;1.08;;;6.90;99.90;;;;;;4964504;28;20212;-91
2023/11/21 04:37:13;;;;;;;2.08;1.27;;;6.90;99.90;;;;;;4967964;28;20212;-91
2023/11/21 04:39:40;;;;;;;3.00;0.90;;;6.80;99.90;;;;;;4971480;29;20214;-91
2023/11/21 04:42:07;;;;;;;1.67;0.80;;;6.80;99.90;;;;;;4960768;28;20244;-91
2023/11/21 04:44:41;;;;;;;1.50;0.70;;;6.90;99.90;;;;;;4953332;29;20205;-91
2023/11/21 04:47:19;;;;;;;3.33;1.02;;;6.90;99.90;;;;;;4957353;29;20584;-92
2023/11/21 04:50:19;;;;;;;0.88;0.77;;;6.90;99.90;;;;;;4955865;29;20204;-92
2023/11/21 04:53:06;;;;;;;1.15;1.05;;;6.90;99.90;;;;;;4952055;29;20805;-91
2023/11/21 04:55:33;;;;;;;1.00;0.90;;;6.90;99.90;;;;;;4964583;29;20204;-92
2023/11/21 05:01:36;;;;;;;1.95;1.08;;;6.90;99.90;;;;;;4921782;23;20318;-70
2023/11/21 05:04:03;;;;;;;1.10;1.00;;;6.90;99.90;;;;;;4939772;29;20213;-70
2023/11/21 05:06:31;;;;;;;1.10;0.80;;;6.80;99.90;;;;;;4941593;29;20586;-72
2023/11/21 05:08:59;;;;;;;1.85;1.30;;;6.80;99.90;;;;;;4949316;28;20236;-72
2023/11/21 05:11:26;;;;;;;0.82;0.75;;;6.80;99.90;;;;;;4937280;28;20253;-72
2023/11/21 05:13:53;;;;;;;0.90;0.77;;;6.70;99.90;;;;;;4926649;29;20671;-70
2023/11/21 05:16:20;;;;;;;0.90;0.75;;;6.70;99.90;;;;;;4923835;29;20751;-70
2023/11/21 05:18:47;;;;;;;1.15;0.90;;;6.70;99.90;;;;;;4926910;29;20590;-71
2023/11/21 05:21:14;;;;;;;1.30;1.20;;;6.70;99.90;;;;;;4924381;29;20238;-72
2023/11/21 05:23:42;;;;;;;1.55;1.10;;;6.60;99.90;;;;;;4928045;29;20626;-70
2023/11/21 05:26:09;;;;;;;0.80;0.80;;;6.60;99.90;;;;;;4920372;29;20206;-70
2023/11/21 05:28:36;;;;;;;1.00;0.90;;;6.60;99.90;;;;;;4929921;29;20208;-71
2023/11/21 05:31:03;;;;;;;1.30;1.05;;;6.60;99.90;;;;;;4934475;29;20264;-72
2023/11/21 05:33:30;;;;;;;0.80;0.77;;;6.60;99.90;;;;;;4934973;29;20587;-70
2023/11/21 05:35:56;;;;;;;0.80;0.70;;;6.60;99.90;;;;;;4937686;29;20221;-72
2023/11/21 05:38:23;;;;;;;1.10;0.98;;;6.60;99.90;;;;;;4931904;29;20205;-72
2023/11/21 05:40:51;;;;;;;1.00;0.90;;;6.60;99.90;;;;;;4939549;29;20232;-72
2023/11/21 05:43:18;;;;;;;1.48;1.20;;;6.60;99.90;;;;;;4936965;29;20575;-72
2023/11/21 05:45:44;;;;;;;1.15;0.82;;;6.60;99.90;;;;;;4933339;29;20209;-72
2023/11/21 05:48:11;;;;;;;1.00;0.90;;;6.60;99.90;;;;;;4938173;29;20207;-73
2023/11/21 05:50:38;;;;;;;0.80;0.80;;;6.60;99.90;;;;;;4930703;29;20622;-72
2023/11/21 05:53:05;;;;;;;0.93;0.82;;;6.60;99.90;;;;;;4929857;29;20269;-72
2023/11/21 05:55:31;;;;;;;0.80;0.80;;;6.60;99.90;;;;;;4937066;29;20201;-72
2023/11/21 05:57:59;;;;;;;1.02;0.90;;;6.60;99.90;;;;;;4937535;29;20209;-72
2023/11/21 06:00:28;;;;;;;0.70;0.70;;;6.60;99.90;;;;;;4936793;29;20241;-72
2023/11/21 06:02:55;;;;;;;1.15;1.05;;;6.60;99.90;;;;;;4937533;29;20687;-72
2023/11/21 06:05:24;;;;;;;1.27;1.13;;;6.60;99.90;;;;;;4927428;29;20276;-71
2023/11/21 06:07:50;;;;;;;1.05;0.95;;;6.50;99.90;;;;;;4936360;29;20205;-71
2023/11/21 06:10:19;;;;;;;1.15;1.05;;;6.50;99.90;;;;;;4927356;29;20583;-71
2023/11/21 06:12:45;;;;;;;3.80;1.55;;;6.50;99.90;;;;;;4935929;29;20248;-71
2023/11/21 06:15:14;;;;;;;1.13;0.90;;;6.50;99.90;;;;;;4928748;29;20217;-72
2023/11/21 06:17:41;;;;;;;1.77;0.80;;;6.50;99.90;;;;;;4931215;29;20271;-71
2023/11/21 06:20:09;;;;;;;1.27;1.17;;;6.50;99.90;;;;;;4938380;29;20225;-71
2023/11/21 06:22:36;;;;;;;1.27;1.15;;;6.60;99.90;;;;;;4932273;29;20284;-71
2023/11/21 06:25:05;;;;;;;1.30;1.20;;;6.60;99.90;;;;;;4931719;29;20235;-71
2023/11/21 06:27:32;;;;;;;2.10;1.30;;;6.60;99.90;;;;;;4927054;29;20209;-71
2023/11/21 06:29:59;;;;;;;1.60;1.05;;;6.60;99.90;;;;;;4928399;29;20251;-71
2023/11/21 06:32:29;;;;;;;1.02;0.90;;;6.60;99.90;;;;;;4933666;29;20240;-71
2023/11/21 06:34:56;;;;;;;1.27;1.17;;;6.60;99.90;;;;;;4934239;29;20216;-71
2023/11/21 06:37:23;;;;;;;1.20;1.10;;;6.60;99.90;;;;;;4934584;29;20210;-71
2023/11/21 06:39:52;;;;;;;2.08;0.95;;;6.60;99.90;;;;;;4935170;29;20233;-70
2023/11/21 06:42:19;;;;;;;1.02;0.93;;;6.60;99.90;;;;;;4935273;29;20288;-71
2023/11/21 06:44:46;;;;;;;1.02;0.93;;;6.60;99.90;;;;;;4927251;29;20268;-71
2023/11/21 06:47:12;;;;;;;1.13;0.90;;;6.60;99.90;;;;;;4933723;29;20217;-71
2023/11/21 06:49:42;;;;;;;1.65;1.15;;;6.60;99.90;;;;;;4926980;29;20198;-71
2023/11/21 06:52:09;;;;;;;1.40;1.30;;;6.60;99.90;;;;;;4934528;29;20225;-72
2023/11/21 06:54:35;;;;;;;1.10;1.00;;;6.60;99.90;;;;;;4927689;29;20260;-72
2023/11/21 06:57:02;;;;;;;1.20;0.80;;;6.60;99.90;;;;;;4934373;29;20874;-71
2023/11/21 06:59:29;;;;;;;1.20;0.90;;;6.70;99.90;;;;;;4933078;29;20284;-72
2023/11/21 07:01:56;;;;;;;1.00;0.90;;;6.70;99.90;;;;;;4929962;29;20547;-72
2023/11/21 07:04:24;;;;;;;2.85;1.40;;;6.80;99.90;;;;;;4932674;29;20724;-72
2023/11/21 07:06:52;;;;;;;1.10;0.90;;;6.80;99.90;;;;;;4933290;29;20292;-72
2023/11/21 07:09:21;;;;;;;1.00;0.90;;;6.80;99.90;;;;;;4933915;29;20213;-72
2023/11/21 07:11:48;;;;;;;1.00;0.90;;;6.90;99.90;;;;;;4934760;29;20280;-72
2023/11/21 07:14:15;;;;;;;2.47;0.90;;;6.90;99.90;;;;;;4933600;29;20580;-72
2023/11/21 07:16:41;;;;;;;1.02;0.93;;;6.90;99.90;;;;;;4937639;29;20206;-71
2023/11/21 07:19:08;;;;;;;3.20;1.50;;;6.90;99.90;;;;;;4938198;29;20243;-71
2023/11/21 07:21:36;;;;;;;1.10;1.00;;;7.00;99.90;;;;;;4938031;29;20221;-72
2023/11/21 07:24:06;;;;;;;3.30;1.30;;;7.00;99.90;;;;;;4938316;29;20257;-70
2023/11/21 07:26:34;;;;;;;1.55;1.30;;;7.00;99.90;;;;;;4936106;29;20206;-71
2023/11/21 07:29:01;;;;;;;1.08;0.98;;;7.00;99.90;;;;;;4938525;29;20204;-71
2023/11/21 07:31:29;;;;;;;1.77;1.23;;;7.00;99.90;;;;;;4934140;29;20228;-71
2023/11/21 07:33:57;;;;;;;1.40;1.20;;;7.00;99.90;;;;;;4934093;29;20201;-71
2023/11/21 07:36:24;;;;;;;1.77;1.20;;;7.10;99.90;;;;;;4933176;29;20209;-71
2023/11/21 07:38:51;;;;;;;1.30;1.20;;;7.10;99.90;;;;;;4933991;29;20220;-71
2023/11/21 07:41:20;;;;;;;3.63;1.33;;;7.10;99.90;;;;;;4933150;29;20229;-72
2023/11/21 07:43:47;;;;;;;2.08;1.25;;;7.10;99.90;;;;;;4927924;29;20215;-72
2023/11/21 07:46:15;;;;;;;1.27;1.10;;;7.10;99.90;;;;;;4925378;29;20209;-72
2023/11/21 07:48:42;;;;;;;1.23;1.08;;;7.20;99.90;;;;;;4919115;29;20205;-71
2023/11/21 07:51:10;;;;;;;1.30;1.20;;;7.20;99.90;;;;;;4926348;29;20330;-72
2023/11/21 07:53:37;;;;;;;3.55;1.05;;;7.30;99.90;;;;;;4915377;29;20206;-74
2023/11/21 07:56:06;;;;;;;1.33;1.23;;;7.30;99.90;;;;;;4922601;29;20221;-73
2023/11/21 07:58:35;;;;;;;3.05;1.58;;;7.40;99.90;;;;;;4925304;29;20756;-72
2023/11/21 08:01:03;;;;;;;1.45;1.25;;;7.30;99.90;;;;;;4926292;29;20229;-72
2023/11/21 08:03:31;;;;;;;1.40;1.27;;;7.30;99.90;;;;;;4926266;29;20213;-72
2023/11/21 08:05:57;;;;;;;2.88;1.73;;;7.40;99.90;;;;;;4920987;29;20212;-72
2023/11/21 08:08:24;;;;;;;2.55;1.42;;;7.40;99.90;;;;;;4923608;29;20209;-72
2023/11/21 08:10:56;;;;;;;1.48;1.30;;;7.40;99.90;;;;;;4915987;29;20707;-72
2023/11/21 08:13:23;;;;;;;1.50;1.40;;;7.40;99.90;;;;;;4930776;29;20244;-72
2023/11/21 08:15:51;;;;;;;1.15;1.05;;;7.40;99.90;;;;;;4916042;29;20209;-72
2023/11/21 08:18:18;;;;;;;2.30;1.20;;;7.40;99.90;;;;;;4916720;29;20230;-71
2023/11/21 08:20:47;;;;;;;2.13;1.70;;;7.40;99.90;;;;;;4926355;29;20225;-72
2023/11/21 08:23:16;;;;;;;1.42;1.30;;;7.40;99.90;;;;;;4926693;29;20233;-71
2023/11/21 08:25:43;;;;;;;2.85;1.10;;;7.50;99.90;;;;;;4926219;29;20209;-72
2023/11/21 08:28:10;;;;;;;2.72;1.42;;;7.60;99.90;;;;;;4920618;29;20221;-72
2023/11/21 08:30:37;;;;;;;1.98;1.60;;;7.70;99.90;;;;;;4923260;29;20221;-71
2023/11/21 08:33:05;;;;;;;1.80;1.40;;;7.70;99.90;;;;;;4923438;29;20213;-72
2023/11/21 08:35:32;;;;;;;1.48;1.25;;;7.80;99.90;;;;;;4915765;29;20210;-72
2023/11/21 08:37:59;;;;;;;1.10;1.00;;;7.80;99.90;;;;;;4923470;29;20233;-72
2023/11/21 08:40:25;;;;;;;1.33;1.20;;;7.90;99.90;;;;;;4923954;29;20233;-72
2023/11/21 08:42:52;;;;;;;1.33;1.23;;;7.90;99.90;;;;;;4920936;29;20585;-73
2023/11/21 08:45:19;;;;;;;1.13;0.93;;;7.90;99.90;;;;;;4919800;29;20206;-73
2023/11/21 08:47:46;;;;;;;1.63;1.20;;;8.00;99.90;;;;;;4931636;29;20269;-74
2023/11/21 08:50:15;;;;;;;2.00;1.08;;;8.10;99.90;;;;;;4932677;29;20309;-73
2023/11/21 08:52:42;;;;;;;1.90;1.25;;;8.20;99.90;;;;;;4938259;29;20202;-74
2023/11/21 08:55:12;;;;;;;1.75;1.40;;;8.20;99.90;;;;;;4940265;29;20213;-74
2023/11/21 08:57:40;;;;;;;1.10;1.00;;;8.30;99.90;;;;;;4923426;29;20205;-74
2023/11/21 09:00:10;;;;;;;1.20;0.93;;;8.50;99.90;;;;;;4925482;29;20216;-74
2023/11/21 09:02:38;;;;;;;3.30;1.30;;;8.60;99.90;;;;;;4927601;29;20237;-74
2023/11/21 09:05:05;;;;;;;2.17;0.80;;;8.70;99.90;;;;;;4932782;29;20909;-73
2023/11/21 09:07:34;;;;;;;1.35;1.05;;;8.90;99.90;;;;;;4927995;29;20274;-74
2023/11/21 09:10:00;;;;;;;0.85;0.80;;;9.10;99.90;;;;;;4929919;29;20221;-74
2023/11/21 09:12:27;;;;;;;1.55;1.10;;;9.10;99.90;;;;;;4935432;29;20244;-73
2023/11/21 09:14:54;;;;;;;1.38;0.90;;;9.10;99.90;;;;;;4928482;29;20213;-74
2023/11/21 09:17:20;;;;;;;1.15;0.95;;;9.10;99.90;;;;;;4928178;29;20214;-74
2023/11/21 09:19:51;;;;;;;1.75;1.33;;;9.10;99.90;;;;;;4928984;29;20525;-74
2023/11/21 09:22:17;;;;;;;1.05;0.95;;;9.10;99.90;;;;;;4927165;29;20253;-74
2023/11/21 09:24:45;;;;;;;1.33;1.05;;;9.10;99.90;;;;;;4927254;29;20206;-74
2023/11/21 09:27:12;;;;;;;2.65;1.20;;;9.20;99.90;;;;;;4934688;29;20213;-74
2023/11/21 09:29:39;;;;;;;1.27;1.17;;;9.20;99.90;;;;;;4925087;29;20792;-74
2023/11/21 09:32:08;;;;;;;8.43;1.23;;;9.30;99.90;;;;;;4929022;29;20237;-74
2023/11/21 09:34:35;;;;;;;1.10;1.00;;;9.40;99.90;;;;;;4932023;29;20319;-74
2023/11/21 09:37:05;;;;;;;1.15;1.05;;;9.40;99.90;;;;;;4923728;29;20218;-73
2023/11/21 09:39:33;;;;;;;1.30;1.17;;;9.50;99.90;;;;;;4931188;29;20214;-74
2023/11/21 09:42:11;;;;;;;1.20;1.00;;;9.70;99.90;;;;;;4926056;29;20254;-73
2023/11/21 09:44:47;;;;;;;1.50;1.00;;;9.80;99.90;;;;;;4933423;29;20232;-74
2023/11/21 09:47:16;;;;;;;2.55;1.10;;;10.00;99.90;;;;;;4925258;29;20209;-74
2023/11/21 09:49:49;;;;;;;0.90;0.80;;;10.20;99.90;;;;;;4925313;29;20222;-74
2023/11/21 09:52:24;;;;;;;2.13;1.00;;;10.50;99.90;;;;;;4926776;29;20648;-73
2023/11/21 09:54:53;;;;;;;1.25;0.90;;;10.70;99.90;;;;;;4925504;29;20715;-74
2023/11/21 09:57:22;;;;;;;1.00;0.80;;;10.80;99.90;;;;;;4932943;29;20310;-73
2023/11/21 09:59:55;;;;;;;1.20;0.90;;;10.80;99.90;;;;;;4925252;29;20237;-74
2023/11/21 10:02:25;;;;;;;0.80;0.70;;;10.70;99.90;;;;;;4926376;29;20239;-73
2023/11/21 10:04:54;;;;;;;0.90;0.70;;;10.60;99.90;;;;;;4917751;29;20298;-73
2023/11/21 10:07:21;;;;;;;0.80;0.80;;;10.40;99.90;;;;;;4925069;29;20211;-74
2023/11/21 10:09:49;;;;;;;0.90;0.80;;;10.20;99.90;;;;;;4930612;29;20570;-74
2023/11/21 10:12:16;;;;;;;1.20;0.77;;;10.10;99.90;;;;;;4923989;29;20230;-73
2023/11/21 10:14:49;;;;;;;1.00;0.90;;;10.00;99.90;;;;;;4931595;29;20223;-74
2023/11/21 10:17:18;;;;;;;1.40;1.20;;;9.90;99.90;;;;;;4927198;29;20654;-73
2023/11/21 10:19:48;;;;;;;0.95;0.80;;;9.80;99.90;;;;;;4924778;29;20222;-74
2023/11/21 10:22:16;;;;;;;2.65;1.10;;;9.70;99.90;;;;;;4930036;29;20252;-74
2023/11/21 10:24:43;;;;;;;3.45;1.00;;;9.60;99.90;;;;;;4932359;29;20586;-74
2023/11/21 10:27:10;;;;;;;0.90;0.80;;;9.50;99.90;;;;;;4927090;29;20215;-74
2023/11/21 10:29:37;;;;;;;2.30;1.05;;;9.40;99.90;;;;;;4925394;29;20212;-74
2023/11/21 10:32:06;;;;;;;1.00;0.90;;;9.30;99.90;;;;;;4935935;29;20229;-74
2023/11/21 10:34:33;;;;;;;1.38;1.23;;;9.30;99.90;;;;;;4928232;29;20261;-74
2023/11/21 10:37:12;;;;;;;1.35;0.93;;;9.20;99.90;;;;;;4928575;29;20667;-74
2023/11/21 10:39:40;;;;;;;1.00;0.90;;;9.20;99.90;;;;;;4927318;29;20228;-74
2023/11/21 10:42:10;;;;;;;1.40;1.10;;;9.10;99.90;;;;;;4921057;29;20773;-73
2023/11/21 10:44:37;;;;;;;1.70;1.10;;;9.10;99.90;;;;;;4927129;29;20637;-74
2023/11/21 10:47:05;;;;;;;1.17;1.02;;;9.10;99.90;;;;;;4926886;29;20202;-74
2023/11/21 10:49:32;;;;;;;1.38;0.85;;;9.00;99.90;;;;;;4927046;29;20257;-73
2023/11/21 10:52:00;;;;;;;1.55;1.27;;;9.00;99.90;;;;;;4923944;29;20607;-73
2023/11/21 10:54:27;;;;;;;1.00;0.90;;;9.00;99.90;;;;;;4931098;29;20220;-73
2023/11/21 10:56:58;;;;;;;0.90;0.70;;;8.90;99.90;;;;;;4921487;29;20237;-73
2023/11/21 10:59:29;;;;;;;1.10;0.80;;;8.90;99.90;;;;;;4931214;29;20261;-73
2023/11/21 11:02:00;;;;;;;4.45;1.00;;;8.90;99.90;;;;;;4929027;29;20666;-73
2023/11/21 11:04:29;;;;;;;1.30;1.13;;;8.90;99.90;;;;;;4926068;29;20202;-74
2023/11/21 11:06:57;;;;;;;0.70;0.70;;;8.90;99.90;;;;;;4929602;29;20214;-73
2023/11/21 11:09:25;;;;;;;0.90;0.80;;;9.00;99.90;;;;;;4925910;29;20590;-73
2023/11/21 11:11:53;;;;;;;2.13;0.90;;;9.00;99.90;;;;;;4921625;29;20229;-73
2023/11/21 11:14:24;;;;;;;1.27;1.17;;;9.00;99.90;;;;;;4927066;29;20217;-73
2023/11/21 11:16:55;;;;;;;1.80;0.95;;;9.00;99.90;;;;;;4926752;29;20219;-73
2023/11/21 11:19:21;;;;;;;2.00;1.02;;;9.00;99.90;;;;;;4927659;29;20675;-73
2023/11/21 11:21:57;;;;;;;1.30;1.10;;;9.00;99.90;;;;;;4925399;29;20241;-73
2023/11/21 11:24:45;;;;;;;1.45;1.35;;;9.00;99.90;;;;;;4925485;29;20596;-73
2023/11/21 11:27:23;;;;;;;1.20;1.10;;;9.00;99.90;;;;;;4919197;29;20215;-74
2023/11/21 11:30:03;;;;;;;1.02;0.93;;;9.00;99.90;;;;;;4925573;29;20209;-73
2023/11/21 11:32:39;;;;;;;1.00;0.90;;;9.00;99.90;;;;;;4924182;29;20221;-73
2023/11/21 11:35:16;;;;;;;4.00;1.10;;;9.00;99.90;;;;;;4927475;29;20209;-73
2023/11/21 11:37:44;;;;;;;1.20;1.10;;;9.00;99.90;;;;;;4924166;29;20229;-73
2023/11/21 11:40:13;;;;;;;1.67;1.10;;;9.00;99.90;;;;;;4925814;29;20209;-74
2023/11/21 11:42:40;;;;;;;2.15;1.60;;;9.10;99.90;;;;;;4919992;29;20610;-73
2023/11/21 11:45:19;;;;;;;2.00;1.67;;;9.10;99.90;;;;;;4928281;29;20290;-73
2023/11/21 11:47:49;;;;;;;1.45;1.35;;;9.10;99.90;;;;;;4920564;29;20216;-73
2023/11/21 11:50:17;;;;;;;2.00;1.63;;;9.10;99.90;;;;;;4926782;29;20223;-73
2023/11/21 11:52:46;;;;;;;2.72;1.50;;;9.10;99.90;;;;;;4926049;29;20286;-73
2023/11/21 11:55:17;;;;;;;1.83;1.30;;;9.20;99.90;;;;;;4927281;29;20594;-73
2023/11/21 11:57:46;;;;;;;1.58;1.48;;;9.30;99.90;;;;;;4920164;29;20216;-73
2023/11/21 12:00:24;;;;;;;2.28;1.40;;;9.50;99.90;;;;;;4923680;29;20616;-74
2023/11/21 12:02:53;;;;;;;1.95;1.35;;;9.80;99.90;;;;;;4920642;29;20313;-73
2023/11/21 12:05:21;;;;;;;1.02;0.93;;;10.00;99.90;;;;;;4929529;29;20214;-73
2023/11/21 12:07:52;;;;;;;1.17;1.00;;;10.20;99.90;;;;;;4927056;29;20215;-73
2023/11/21 12:10:20;;;;;;;1.23;0.90;;;10.40;99.90;;;;;;4928067;29;20214;-73
2023/11/21 12:12:48;;;;;;;1.25;1.15;;;10.60;99.90;;;;;;4925632;29;20284;-73
2023/11/21 12:15:16;;;;;;;2.28;1.48;;;10.70;99.90;;;;;;4925697;29;20593;-73
2023/11/21 12:17:44;;;;;;;1.13;1.00;;;10.90;99.90;;;;;;4923170;29;20225;-73
2023/11/21 12:20:15;;;;;;;1.10;1.00;;;11.10;99.90;;;;;;4933740;29;20364;-73
2023/11/21 12:22:48;;;;;;;1.00;0.90;;;11.30;99.90;;;;;;4929927;29;20231;-73
2023/11/21 12:25:18;;;;;;;1.35;1.17;;;11.50;99.90;;;;;;4926595;29;20217;-73
2023/11/21 12:27:46;;;;;;;1.00;0.90;;;11.50;99.90;;;;;;4930986;29;20699;-73
2023/11/21 12:30:15;;;;;;;1.15;0.98;;;11.50;99.90;;;;;;4938399;29;20212;-73
2023/11/21 12:32:45;;;;;;;1.10;1.00;;;11.40;99.90;;;;;;4929249;29;20233;-73
2023/11/21 12:35:14;;;;;;;1.42;1.33;;;11.20;99.90;;;;;;4931400;29;20219;-73
2023/11/21 12:37:43;;;;;;;1.20;1.10;;;11.00;99.90;;;;;;4927159;29;20215;-72
2023/11/21 12:40:13;;;;;;;2.95;1.20;;;10.90;99.90;;;;;;4927610;29;20207;-73
2023/11/21 12:42:44;;;;;;;1.20;1.10;;;10.80;99.90;;;;;;4934611;29;20228;-72
2023/11/21 12:45:22;;;;;;;1.38;1.27;;;10.70;99.90;;;;;;4935055;29;20212;-73
2023/11/21 12:47:51;;;;;;;1.13;1.02;;;10.70;99.90;;;;;;4930789;29;20244;-72
2023/11/21 12:50:28;;;;;;;2.25;1.15;;;10.60;99.90;;;;;;4932291;29;20212;-73
2023/11/21 12:53:02;;;;;;;1.63;1.40;;;10.50;99.90;;;;;;4930777;29;20207;-72
2023/11/21 12:55:37;;;;;;;2.72;1.50;;;10.40;99.90;;;;;;4930435;29;20211;-72
2023/11/21 12:58:09;;;;;;;1.10;1.00;;;10.30;99.90;;;;;;4930433;29;20595;-73
2023/11/21 13:00:39;;;;;;;1.00;0.90;;;10.10;99.90;;;;;;4931187;29;20240;-73
2023/11/21 13:03:08;;;;;;;0.90;0.70;;;9.90;99.90;;;;;;4930455;29;20226;-73
2023/11/21 13:05:39;;;;;;;1.27;1.00;;;9.80;99.90;;;;;;4929746;29;20217;-72
2023/11/21 13:08:09;;;;;;;1.10;1.00;;;9.70;99.90;;;;;;4929294;29;20293;-73
2023/11/21 13:10:38;;;;;;;1.42;1.00;;;9.60;99.90;;;;;;4933719;29;20240;-73
2023/11/21 13:13:09;;;;;;;1.15;1.05;;;9.60;99.90;;;;;;4929434;29;20206;-73
2023/11/21 13:15:40;;;;;;;1.70;1.10;;;9.50;99.90;;;;;;4929572;29;20211;-73
2023/11/21 13:18:10;;;;;;;1.27;1.13;;;9.50;99.90;;;;;;4929684;29;20305;-73
2023/11/21 13:20:38;;;;;;;1.35;1.25;;;9.50;99.90;;;;;;4929667;29;20645;-73
2023/11/21 13:23:11;;;;;;;1.52;1.42;;;9.40;99.90;;;;;;4934941;29;20229;-73
2023/11/21 13:25:41;;;;;;;1.63;1.00;;;9.40;99.90;;;;;;4932668;29;20270;-73
2023/11/21 13:28:10;;;;;;;1.20;1.02;;;9.40;99.90;;;;;;4937419;29;20220;-73
2023/11/21 13:30:39;;;;;;;1.40;1.30;;;9.50;99.90;;;;;;4929531;29;20247;-72
2023/11/21 13:33:07;;;;;;;1.30;1.20;;;9.60;99.90;;;;;;4933909;29;20255;-72
2023/11/21 13:35:37;;;;;;;1.25;1.15;;;9.70;99.90;;;;;;4924745;29;20215;-73
2023/11/21 13:38:06;;;;;;;1.55;1.33;;;9.60;99.90;;;;;;4935234;29;20210;-74
2023/11/21 13:40:34;;;;;;;1.10;0.90;;;9.50;99.90;;;;;;4933145;29;20282;-73
2023/11/21 13:43:04;;;;;;;1.30;1.20;;;9.30;99.90;;;;;;4935449;29;20237;-73
2023/11/21 13:45:32;;;;;;;1.00;0.80;;;9.20;99.90;;;;;;4929250;29;20208;-73
2023/11/21 13:47:59;;;;;;;1.35;0.82;;;9.20;99.90;;;;;;4933952;29;20224;-73
2023/11/21 13:50:32;;;;;;;0.90;0.80;;;9.10;99.90;;;;;;4930861;29;20248;-73
2023/11/21 13:53:04;;;;;;;0.90;0.80;;;9.00;99.90;;;;;;4930184;29;20705;-73
2023/11/21 13:55:31;;;;;;;0.80;0.73;;;9.00;99.90;;;;;;4929063;29;20206;-73
2023/11/21 13:57:59;;;;;;;1.00;0.90;;;8.90;99.90;;;;;;4931292;29;20678;-73
2023/11/21 14:00:41;;;;;;;0.95;0.85;;;8.80;99.90;;;;;;4935859;29;20217;-72
2023/11/21 14:03:17;;;;;;;1.02;0.85;;;8.80;99.90;;;;;;4934885;29;20225;-73
2023/11/21 14:05:46;;;;;;;0.80;0.70;;;8.90;99.90;;;;;;4930169;29;20520;-73
2023/11/21 14:08:16;;;;;;;1.00;0.80;;;8.90;99.90;;;;;;4934718;29;20238;-73
2023/11/21 14:10:43;;;;;;;0.88;0.73;;;8.90;99.90;;;;;;4930297;29;20300;-74
2023/11/21 14:13:12;;;;;;;1.73;0.88;;;8.90;99.90;;;;;;4926328;29;20679;-72
2023/11/21 14:15:43;;;;;;;1.35;0.80;;;9.00;99.90;;;;;;4926188;29;20309;-74
2023/11/21 14:18:12;;;;;;;1.90;0.90;;;8.90;99.90;;;;;;4937132;29;20244;-73
2023/11/21 14:20:39;;;;;;;1.40;1.20;;;8.90;99.90;;;;;;4928900;29;20223;-72
2023/11/21 14:23:06;;;;;;;1.30;1.10;;;8.80;99.90;;;;;;4934317;29;20229;-72
2023/11/21 14:25:34;;;;;;;1.00;0.90;;;8.80;99.90;;;;;;4930442;29;20205;-73
2023/11/21 14:28:01;;;;;;;1.33;1.20;;;8.80;99.90;;;;;;4933107;29;20241;-73
2023/11/21 14:30:29;;;;;;;2.60;1.40;;;8.80;99.90;;;;;;4936426;29;20694;-73
2023/11/21 14:32:56;;;;;;;2.10;1.20;;;8.80;99.90;;;;;;4933908;29;20201;-72
2023/11/21 14:35:24;;;;;;;1.23;1.13;;;8.70;99.90;;;;;;4932125;29;20207;-74
2023/11/21 14:37:51;;;;;;;1.27;1.17;;;8.70;99.90;;;;;;4927496;29;20201;-74
2023/11/21 14:40:21;;;;;;;1.15;1.05;;;8.60;99.90;;;;;;4936520;29;20241;-74
2023/11/21 14:42:48;;;;;;;1.40;1.30;;;8.60;99.90;;;;;;4933605;29;20425;-74
2023/11/21 14:45:19;;;;;;;1.58;1.30;;;8.60;99.90;;;;;;4927585;29;20205;-74
2023/11/21 14:47:54;;;;;;;1.63;1.33;;;8.60;99.90;;;;;;4935648;29;20300;-74
2023/11/21 14:50:49;;;;;;;1.73;1.55;;;8.60;99.90;;;;;;4933845;29;20208;-74
2023/11/21 14:53:25;;;;;;;1.20;1.10;;;8.50;99.90;;;;;;4928518;29;20197;-74
2023/11/21 14:55:57;;;;;;;1.52;1.40;;;8.50;99.90;;;;;;4928791;29;20217;-74
2023/11/21 14:58:26;;;;;;;2.45;1.30;;;8.40;99.90;;;;;;4933897;29;20321;-74
2023/11/21 15:00:57;;;;;;;1.67;1.50;;;8.40;99.90;;;;;;4936626;29;20370;-74
2023/11/21 15:03:43;;;;;;;2.72;1.63;;;8.30;99.90;;;;;;4932521;29;20334;-74
2023/11/21 15:06:20;;;;;;;1.98;1.45;;;8.40;99.90;;;;;;4931631;29;20223;-74
2023/11/21 15:08:57;;;;;;;1.45;1.23;;;8.30;99.90;;;;;;4929168;29;20215;-74
2023/11/21 15:11:30;;;;;;;1.63;1.33;;;8.30;99.90;;;;;;4934332;29;20283;-75
2023/11/21 15:13:56;;;;;;;1.52;1.42;;;8.30;99.90;;;;;;4939101;29;20201;-74
2023/11/21 15:16:23;;;;;;;1.83;1.20;;;8.30;99.90;;;;;;4933986;29;20209;-74
2023/11/21 15:18:50;;;;;;;6.70;2.08;;;8.30;99.90;;;;;;4936439;29;20582;-74
2023/11/21 15:21:16;;;;;;;1.65;1.55;;;8.30;99.90;;;;;;4935035;29;20229;-74
2023/11/21 15:23:43;;;;;;;1.00;0.90;;;8.30;99.90;;;;;;4937388;29;20225;-73
2023/11/21 15:26:11;;;;;;;1.52;1.30;;;8.20;99.90;;;;;;4936304;29;20777;-73
2023/11/21 15:28:38;;;;;;;1.75;1.40;;;8.20;99.90;;;;;;4934571;29;20209;-73
2023/11/21 15:31:05;;;;;;;2.00;1.80;;;8.20;99.90;;;;;;4936035;29;20225;-73
2023/11/21 15:33:32;;;;;;;1.65;1.50;;;8.20;99.90;;;;;;4927800;29;20201;-73
2023/11/21 15:35:58;;;;;;;2.13;1.50;;;8.20;99.90;;;;;;4933408;29;20236;-73
2023/11/21 15:38:25;;;;;;;2.55;2.05;;;8.20;99.90;;;;;;4931959;29;20568;-72
2023/11/21 15:40:52;;;;;;;2.53;1.90;;;8.20;99.90;;;;;;4931536;29;20236;-73
2023/11/21 15:43:21;;;;;;;2.97;1.83;;;8.10;99.90;;;;;;4932962;29;20320;-73
2023/11/21 15:45:47;;;;;;;1.73;1.60;;;8.10;99.90;;;;;;4935359;29;20205;-73
2023/11/21 15:48:16;;;;;;;2.10;1.90;;;8.10;99.90;;;;;;4935343;29;20693;-72
2023/11/21 15:50:42;;;;;;;2.25;2.00;;;8.10;99.90;;;;;;4933722;29;20229;-74
2023/11/21 15:53:09;;;;;;;3.55;2.45;;;8.00;99.90;;;;;;4927602;29;20206;-74
2023/11/21 15:55:42;;;;;;;3.15;2.25;;;8.00;99.90;;;;;;4931367;29;20209;-74
2023/11/21 15:58:08;;;;;;;4.47;4.07;;;8.00;99.90;;;;;;4933313;29;20682;-74
2023/11/21 16:00:37;;;;;;;7.38;4.07;;;8.00;99.90;;;;;;4927628;29;20225;-73
2023/11/21 16:03:03;;;;;;;4.20;3.10;;;8.00;99.90;;;;;;4934405;29;20233;-73
2023/11/21 16:05:31;;;;;;;3.08;2.75;;;8.00;99.90;;;;;;4938190;29;20213;-73
2023/11/21 16:07:57;;;;;;;3.15;2.85;;;7.90;99.90;;;;;;4933563;29;20465;-73
2023/11/21 16:10:24;;;;;;;4.32;2.53;;;7.90;99.90;;;;;;4933786;29;20216;-73
2023/11/21 16:12:51;;;;;;;4.40;2.90;;;7.90;99.90;;;;;;4931952;29;20213;-73
2023/11/21 16:15:18;;;;;;;3.55;3.25;;;7.90;99.90;;;;;;4937388;29;20213;-72
2023/11/21 16:17:47;;;;;;;3.60;3.30;;;7.90;99.90;;;;;;4936550;29;20640;-73
2023/11/21 16:20:15;;;;;;;3.70;3.40;;;7.90;99.90;;;;;;4935867;29;20221;-74
2023/11/21 16:22:45;;;;;;;3.65;3.35;;;7.90;99.90;;;;;;4930649;29;20221;-75
2023/11/21 16:25:13;;;;;;;2.42;2.22;;;7.80;99.90;;;;;;4935023;29;20304;-75
2023/11/21 16:27:42;;;;;;;2.97;2.60;;;7.80;99.90;;;;;;4929789;29;20705;-74
2023/11/21 16:30:09;;;;;;;3.50;2.95;;;7.90;99.90;;;;;;4938023;29;20217;-72
2023/11/21 16:32:37;;;;;;;2.97;2.67;;;7.80;99.90;;;;;;4930493;29;20227;-74
2023/11/21 16:35:05;;;;;;;3.22;2.50;;;7.90;99.90;;;;;;4939064;29;20210;-73
2023/11/21 16:37:32;;;;;;;5.78;2.70;;;7.90;99.90;;;;;;4937829;29;20214;-73
2023/11/21 16:39:59;;;;;;;3.45;3.10;;;7.90;99.90;;;;;;4937685;29;20564;-73
2023/11/21 16:42:27;;;;;;;4.45;4.05;;;7.80;99.90;;;;;;4933558;29;20230;-73
2023/11/21 16:44:54;;;;;;;6.82;5.50;;;7.80;99.90;;;;;;4933516;29;20209;-72
2023/11/21 16:47:23;;;;;;;5.53;3.72;;;7.80;99.90;;;;;;4936477;29;20217;-72
2023/11/21 16:49:49;;;;;;;5.38;4.05;;;7.80;99.90;;;;;;4931508;29;20205;-73
2023/11/21 16:52:21;;;;;;;3.47;3.17;;;7.80;99.90;;;;;;4939290;29;20229;-72
2023/11/21 16:54:48;;;;;;;3.58;3.28;;;7.80;99.90;;;;;;4940493;29;20233;-75
2023/11/21 16:57:15;;;;;;;5.03;3.75;;;7.80;99.90;;;;;;4931185;29;20272;-75
2023/11/21 16:59:42;;;;;;;6.85;4.10;;;7.80;99.90;;;;;;4938353;29;20210;-74
2023/11/21 17:02:10;;;;;;;5.68;3.85;;;7.80;99.90;;;;;;4936892;29;20252;-74
2023/11/21 17:04:41;;;;;;;5.70;3.80;;;7.70;99.90;;;;;;4937322;29;20228;-75
2023/11/21 17:07:08;;;;;;;4.75;3.53;;;7.70;99.90;;;;;;4935861;29;20209;-72
2023/11/21 17:09:36;;;;;;;4.00;3.55;;;7.70;99.90;;;;;;4934239;29;20210;-73
2023/11/21 17:12:05;;;;;;;5.50;3.60;;;7.60;99.90;;;;;;4928881;29;20230;-73
2023/11/21 17:14:33;;;;;;;3.95;3.10;;;7.60;99.90;;;;;;4934195;29;20300;-72
2023/11/21 17:17:00;;;;;;;3.85;3.15;;;7.50;99.90;;;;;;4934941;29;20245;-71
2023/11/21 17:19:31;;;;;;;5.65;3.80;;;7.40;99.90;;;;;;4935186;29;20221;-72
2023/11/21 17:21:58;;;;;;;5.20;3.50;;;7.40;99.90;;;;;;4928987;29;20279;-80
2023/11/21 17:24:25;;;;;;;5.43;4.03;;;7.30;99.90;;;;;;4935042;29;20229;-72